Basom, NY (14013)

11:22 AM EDT on September 04, 2015 (GMT -0400)
RAWS | | Change Station
CLOSE
Current Station
Personal Weather Station
Location: Basom, NY
Elevation: 627 ft
Nearby Weather Stations

Elev 627 ft 43.11 °N, 78.40 °W | Updated 57 minutes ago

Partly Cloudy
Partly Cloudy
77.0 °F
Feels Like 79 °F
N
6.0
Wind Variable Wind from ENE
Gusts 11.0 mph

Today
High -- | Low -- °F
--% Chance of Precip.
Yesterday
High -- | Low -- °F
Precip. -- in
6:40 AM 7:43 PM
Waning Gibbous, 58% visible
Pressure 30.08 in
Visibility 10.0 miles
Clouds Few 3500 ft
Few 16000 ft
Few 24000 ft
Heat Index 79 °F
Dew Point 69.0 °F
Humidity 76%
Rainfall in
Snow Depth Not available.
UV 5 out of 12
Pollen 10.40 out of 12
Air Quality Not available.
Flu Activity Not available.
METAR KBUF 041454Z 09008KT 10SM FEW035 FEW160 FEW240 26/18 A3009 RMK AO2 SLP185 MDT CU DSNT W T02610183 53006
Pressure 30.08 in
Visibility 10.0 miles
Clouds Few 3500 ft
Few 16000 ft
Few 24000 ft
Heat Index 79 °F
Dew Point 69.0 °F
Humidity 76%
Rainfall in
Snow Depth Not available.
UV 5 out of 12
Pollen 10.40 out of 12
Air Quality Not available.
Flu Activity Not available.
METAR KBUF 041454Z 09008KT 10SM FEW035 FEW160 FEW240 26/18 A3009 RMK AO2 SLP185 MDT CU DSNT W T02610183 53006

10-Day Weather Forecast

×

Almanac

Astronomy

Sep. 04, 2015 Rise Set
Actual Time
Civil Twilight
Nautical Twilight
Astronomical Twilight
Moon
Length of Visible Light
Length of Day
Tomorrow will be .
, % of the Moon is Illuminated

Today's Extremes

State Highs State Lows

Community

WunderPhotos

Upload Photos

1,852,194 photos uploaded!

WunderBlogs® & News

Nearby

Air Quality

  Air Quality AQ Index Pollutant
Not available.

Snow Depth

Station Depth Elevation

Earthquake Activity

City Distance Mag. Time & Date
Minimum magnitude displayed is 2.5.

Coastal Water Temperatures

Place Temperature

Stations

Nearby Weather Stations

Station Location Temp. Windchill Dew Point Humidity Wind Precip. Elev Updated Type